Lambsburg, Virginia
Current Conditions -  °F | °C
As of 2:55 PM on Wednesday 17 Dec 2014 (Local Time) from KHLX Reporting Station
Clear Clear  
Wind Chill: 37°   Ceiling: Unl
Heat Index: 44°   Visibility: 10mi
Dew Point: 27°   Wind: 17mph
Humidity: 51%   Direction: 310°NW
Pressure: 30.03"   Gusts: 23mph
Location:  36.59°N, 80.76°W
Report Text: KHLX 171955Z AUTO 31015G20KT 10SM CLR 07/M03 A3003 RMK AO2 T00681028
Loading
Personal Weather Stations






























Interactive Weather Map New forecast layout! Learn more

10-Day Weather Forecast

Advertisements
Track Severe Weather on mobile